Decoded Metar for LCPH (PAPHOS in CYPRUS) (IATA:PFO) | Meteo·Mobile Aviation Weather
aviador You're here:

LCPH Decoded Metar

PAPHOS in CYPRUS
Report Time2019-07-16 15:00:00
UTC Time2019-07-16 15:11:33
Flight Rules vfr VFR
Wind240° at 05 kt
W.Decomp.*RWY 29: 2.9 kt HW 4 kt LCW
Visibility9999 m
Phenomena:N/A
Clouds:Few 020 Hf
Expected CloudBase > 3,600 ft AGL from Temp-Dew spread
CeilingNone
Temp29°C (ISA +14)
Dew Point20°C (58% RH)
Heat Index30.7°C
QNH1006 hPa
Density Alt2,185 ft
Elevation26 ft
Report Wrong Elevation
Raw Report
METAR LCPH 161500Z 24005KT 210V270 9999 FEW020 29/20 Q1006=

Extra information for LCPH:More info

Metar Taf Metar & Taf Last 4 Metars F.Rules Stats Wind Profile Meteogram Temp Stats Airport Information Weather charts Add Link Nearby VenuesMetar ALERT Operation Metar Decoded Social comments